Time;durP1;ratioP1;P1;durP2;ratioP2;P2;SDS_P1;SDS_P2;PMS_P1;PMS_P2;Temp;Humidity;BMP_temperature;BMP_pressure;BME280_temperature;BME280_humidity;BME280_pressure;Samples;Min_cycle;Max_cycle;Signal;HPM_P1;HPM_P2
2021/03/28 00:03:06;;;;;;;59.13;46.80;;;20.90;43.50;;;;;;4754452;55;20978;-25
2021/03/28 00:08:28;;;;;;;57.17;45.90;;;20.90;43.50;;;;;;4760654;55;21559;-24
2021/03/28 00:13:29;;;;;;;57.88;45.55;;;20.90;43.50;;;;;;4790593;55;21384;-26
2021/03/28 00:19:21;;;;;;;58.10;45.45;;;20.90;43.60;;;;;;4763052;55;21022;-24
2021/03/28 00:24:49;;;;;;;56.60;44.70;;;21.00;43.60;;;;;;4745232;55;21047;-20
2021/03/28 00:30:01;;;;;;;55.60;44.47;;;20.90;43.60;;;;;;4743061;55;21085;-18
2021/03/28 00:35:08;;;;;;;58.58;46.83;;;20.90;43.60;;;;;;4749682;55;21545;-20
2021/03/28 00:40:22;;;;;;;57.38;45.00;;;21.00;43.60;;;;;;4835920;55;21065;-23
2021/03/28 00:45:29;;;;;;;57.53;46.13;;;20.90;43.60;;;;;;4744824;55;21002;-25
2021/03/28 00:50:51;;;;;;;57.62;45.63;;;20.90;43.60;;;;;;4752716;55;21049;-21
2021/03/28 00:56:10;;;;;;;57.15;44.92;;;20.90;43.60;;;;;;4765041;55;21069;-27
2021/03/28 01:02:35;;;;;;;56.97;45.53;;;20.90;43.60;;;;;;4781754;55;21070;-23
2021/03/28 01:07:48;;;;;;;53.65;43.80;;;20.90;43.60;;;;;;4744959;55;21491;-22
2021/03/28 01:19:56;;;;;;;60.05;47.58;;;20.90;43.70;;;;;;4741648;55;21010;-21
2021/03/28 01:25:24;;;;;;;55.28;43.75;;;20.90;43.60;;;;;;4762857;55;21529;-22
2021/03/28 01:30:41;;;;;;;56.42;44.53;;;20.90;43.60;;;;;;4746204;55;20990;-30
2021/03/28 01:38:10;;;;;;;53.78;42.70;;;20.90;43.70;;;;;;4738550;59;21002;-27
2021/03/28 01:43:47;;;;;;;58.00;46.47;;;20.90;43.70;;;;;;4752052;55;20978;-31
2021/03/28 01:50:33;;;;;;;60.55;45.97;;;20.90;43.70;;;;;;4761684;55;21038;-23
2021/03/28 01:56:06;;;;;;;54.22;42.00;;;20.90;44.30;;;;;;4737876;59;21018;-23
2021/03/28 02:01:38;;;;;;;56.40;45.65;;;20.90;43.70;;;;;;4738887;55;21575;-25
2021/03/28 02:07:05;;;;;;;58.08;44.90;;;20.90;43.70;;;;;;4742831;55;21022;-20
2021/03/28 02:12:36;;;;;;;60.05;46.10;;;20.90;43.70;;;;;;4762652;55;20986;-22
2021/03/28 02:18:00;;;;;;;56.13;44.30;;;20.90;43.70;;;;;;4761303;55;21034;-25
2021/03/28 02:23:27;;;;;;;57.47;45.12;;;20.90;43.70;;;;;;4788650;55;21021;-27
2021/03/28 02:30:20;;;;;;;55.70;44.80;;;20.90;43.80;;;;;;4752454;55;21133;-25
2021/03/28 02:42:15;;;;;;;58.53;45.28;;;20.90;43.70;;;;;;4776431;55;21014;-24
2021/03/28 02:52:51;;;;;;;55.88;43.17;;;20.90;43.80;;;;;;4738871;55;21137;-25
2021/03/28 02:58:17;;;;;;;57.47;44.30;;;20.90;43.80;;;;;;4767321;55;21062;-27
2021/03/28 03:06:35;;;;;;;55.78;42.47;;;20.90;43.80;;;;;;4738933;59;21599;-29
2021/03/28 03:12:14;;;;;;;54.83;43.97;;;20.90;44.20;;;;;;4762009;55;21030;-24
2021/03/28 03:17:51;;;;;;;55.20;43.17;;;20.90;43.80;;;;;;4758791;55;21050;-29
2021/03/28 03:27:33;;;;;;;54.03;43.10;;;20.90;43.80;;;;;;4746658;55;21034;-29
2021/03/28 03:35:29;;;;;;;53.03;41.92;;;20.90;43.80;;;;;;4741585;55;21073;-21
2021/03/28 03:40:33;;;;;;;;;;;20.90;43.80;;;;;;4758440;55;20991;-23
2021/03/28 03:47:32;;;;;;;55.12;42.95;;;20.90;43.80;;;;;;4737185;59;20072;-22
2021/03/28 03:53:13;;;;;;;52.70;41.37;;;20.90;43.80;;;;;;4772861;55;21151;-22
2021/03/28 03:58:49;;;;;;;51.92;40.33;;;20.90;43.80;;;;;;4746923;55;21073;-25
2021/03/28 04:07:36;;;;;;;51.78;41.03;;;20.90;43.80;;;;;;4743503;55;21053;-23
2021/03/28 04:15:40;;;;;;;49.53;39.55;;;20.90;43.90;;;;;;4842563;55;21177;-21
2021/03/28 04:20:59;;;;;;;51.37;39.60;;;20.90;43.90;;;;;;4738262;55;21038;-22
2021/03/28 04:34:04;;;;;;;53.80;40.97;;;20.90;43.90;;;;;;4772307;55;21030;-30
2021/03/28 04:42:53;;;;;;;48.60;38.88;;;20.90;43.90;;;;;;4739505;55;21491;-28
2021/03/28 04:49:44;;;;;;;51.88;39.97;;;20.90;43.90;;;;;;4760077;55;21085;-28
2021/03/28 04:56:37;;;;;;;44.10;36.22;;;20.90;43.90;;;;;;4746265;55;21073;-24
2021/03/28 05:02:18;;;;;;;45.17;35.70;;;20.90;43.90;;;;;;4736954;55;21583;-23
2021/03/28 05:11:24;;;;;;;45.12;35.83;;;20.90;43.90;;;;;;4843460;55;21542;-15
2021/03/28 05:19:32;;;;;;;45.03;36.00;;;20.90;43.90;;;;;;4743011;55;21091;-25
2021/03/28 05:26:17;;;;;;;43.90;34.55;;;20.90;43.90;;;;;;4779451;55;21029;-25
2021/03/28 05:32:03;;;;;;;41.80;34.38;;;20.90;43.90;;;;;;4760093;55;21054;-20
2021/03/28 05:44:13;;;;;;;41.30;34.20;;;20.90;43.90;;;;;;4743730;55;21069;-25
2021/03/28 05:49:33;;;;;;;40.50;32.92;;;20.90;43.90;;;;;;4758396;55;21548;-26
2021/03/28 05:56:31;;;;;;;39.42;32.85;;;20.90;43.90;;;;;;4743572;55;21073;-23
2021/03/28 06:02:31;;;;;;;40.10;31.70;;;20.90;43.90;;;;;;4746275;55;21181;-27
2021/03/28 06:08:38;;;;;;;37.35;30.80;;;20.90;43.90;;;;;;4743922;55;21002;-21
2021/03/28 06:14:06;;;;;;;39.30;32.00;;;20.90;43.90;;;;;;4743072;55;21552;-24
2021/03/28 06:26:19;;;;;;;38.72;31.67;;;20.90;43.90;;;;;;4812603;55;21077;-28
2021/03/28 06:32:14;;;;;;;39.65;30.15;;;20.90;43.90;;;;;;4781766;55;21006;-27
2021/03/28 06:47:16;;;;;;;37.17;30.05;;;20.80;43.80;;;;;;4748989;55;21018;-26
2021/03/28 06:55:46;;;;;;;36.50;29.37;;;20.80;43.90;;;;;;4749506;55;21094;-25
2021/03/28 07:01:24;;;;;;;37.20;28.62;;;20.80;43.90;;;;;;4750143;55;21009;-25
2021/03/28 07:07:07;;;;;;;33.80;28.23;;;20.90;43.90;;;;;;4764421;55;21014;-23
2021/03/28 07:14:21;;;;;;;34.03;27.70;;;20.90;43.90;;;;;;4801000;55;21604;-26
2021/03/28 07:21:18;;;;;;;36.22;28.62;;;20.90;43.90;;;;;;4753114;55;21508;-26
2021/03/28 07:28:00;;;;;;;35.80;29.58;;;20.90;43.90;;;;;;4784557;55;21050;-24
2021/03/28 07:33:38;;;;;;;32.55;27.00;;;20.90;43.90;;;;;;4771149;55;21536;-23
2021/03/28 07:39:52;;;;;;;33.17;27.62;;;20.90;44.00;;;;;;4761983;55;21109;-24
2021/03/28 07:48:46;;;;;;;36.22;29.73;;;20.90;43.90;;;;;;4767266;55;21534;-24
2021/03/28 07:54:24;;;;;;;31.77;26.55;;;20.90;43.90;;;;;;4863626;55;21499;-24
2021/03/28 08:02:21;;;;;;;35.20;28.02;;;20.90;43.90;;;;;;4766946;55;21508;-24
2021/03/28 08:08:32;;;;;;;32.33;26.60;;;20.90;44.00;;;;;;4769988;55;21029;-21
2021/03/28 08:18:14;;;;;;;34.20;27.52;;;20.80;43.90;;;;;;4754749;55;21064;-24
2021/03/28 08:24:01;;;;;;;36.42;28.95;;;20.90;44.00;;;;;;4766502;55;21548;-23
2021/03/28 08:30:17;;;;;;;36.22;29.20;;;20.90;44.10;;;;;;4840418;55;22102;-22
2021/03/28 08:35:37;;;;;;;37.03;30.12;;;20.90;44.00;;;;;;4749371;55;21038;-26
2021/03/28 08:44:32;;;;;;;36.38;30.02;;;20.90;44.00;;;;;;4770258;55;21129;-27
2021/03/28 08:50:14;;;;;;;37.17;30.07;;;20.90;44.00;;;;;;4780516;55;21571;-27
2021/03/28 08:55:50;;;;;;;37.47;30.40;;;20.90;44.00;;;;;;4738626;55;21120;-18
2021/03/28 09:04:50;;;;;;;39.53;30.75;;;20.90;44.00;;;;;;4737367;59;21077;-25
2021/03/28 09:11:47;;;;;;;38.53;31.40;;;20.90;44.00;;;;;;4744839;55;21101;-26
2021/03/28 09:19:11;;;;;;;38.63;30.67;;;20.90;44.10;;;;;;4742247;55;21524;-24
2021/03/28 09:24:41;;;;;;;44.25;32.97;;;20.90;44.10;;;;;;4772697;55;21014;-25
2021/03/28 09:36:49;;;;;;;42.78;33.30;;;20.90;44.10;;;;;;4767384;55;21002;-24
2021/03/28 09:42:26;;;;;;;44.13;35.03;;;20.90;44.20;;;;;;4750072;55;21061;-30
2021/03/28 09:49:38;;;;;;;40.70;32.97;;;20.90;44.10;;;;;;4751190;55;21576;-28
2021/03/28 09:55:43;;;;;;;43.97;34.20;;;20.90;44.20;;;;;;4739728;55;21567;-28
2021/03/28 10:01:40;;;;;;;46.03;36.30;;;20.90;44.20;;;;;;4738555;55;21010;-26
2021/03/28 10:06:45;;;;;;;44.67;35.35;;;20.90;44.20;;;;;;4751061;55;21053;-26
2021/03/28 10:11:53;;;;;;;44.03;34.10;;;20.90;44.20;;;;;;4770059;55;21005;-22
2021/03/28 10:19:07;;;;;;;44.60;36.53;;;20.90;44.20;;;;;;4745559;55;21041;-22
2021/03/28 10:24:45;;;;;;;46.42;36.63;;;20.90;44.20;;;;;;4737981;59;21017;-18
2021/03/28 10:30:17;;;;;;;47.83;38.78;;;20.90;44.20;;;;;;4759305;55;21033;-26
2021/03/28 10:38:35;;;;;;;49.22;37.83;;;20.90;44.20;;;;;;4750009;55;21006;-24
2021/03/28 10:43:56;;;;;;;49.40;39.75;;;20.90;44.30;;;;;;4751201;55;21105;-25
2021/03/28 10:49:45;;;;;;;53.03;41.45;;;20.90;44.20;;;;;;4775705;55;21053;-25
2021/03/28 10:55:59;;;;;;;52.53;42.08;;;20.90;44.20;;;;;;4770630;55;21021;-27
2021/03/28 11:01:59;;;;;;;54.47;41.90;;;20.90;44.20;;;;;;4738973;55;21636;-25
2021/03/28 11:09:09;;;;;;;53.83;41.28;;;20.90;44.20;;;;;;4747086;55;21460;-25
2021/03/28 11:14:43;;;;;;;52.42;41.53;;;20.90;44.20;;;;;;4756712;55;21005;-20
2021/03/28 11:22:36;;;;;;;53.55;42.50;;;20.90;44.20;;;;;;4736950;59;21022;-26
2021/03/28 11:28:25;;;;;;;58.55;43.65;;;20.90;44.20;;;;;;4740480;55;21139;-25
2021/03/28 11:33:35;;;;;;;57.40;44.67;;;20.90;44.20;;;;;;4776713;55;21513;-24
2021/03/28 11:39:21;;;;;;;57.53;45.00;;;20.90;44.20;;;;;;4764465;55;21006;-21
2021/03/28 11:44:31;;;;;;;56.83;45.60;;;20.90;44.10;;;;;;4773596;55;20986;-22
2021/03/28 11:49:48;;;;;;;57.60;45.40;;;20.90;44.20;;;;;;4742221;55;21042;-21
2021/03/28 11:57:31;;;;;;;61.72;47.95;;;21.00;44.20;;;;;;4792205;55;21081;-24
2021/03/28 12:02:33;;;;;;;62.08;47.00;;;20.90;44.10;;;;;;4811452;55;21054;-22
2021/03/28 12:07:47;;;;;;;63.65;50.00;;;21.00;44.20;;;;;;4772802;55;21924;-24
2021/03/28 12:13:43;;;;;;;58.17;47.60;;;21.00;44.20;;;;;;4805849;55;21101;-27
2021/03/28 12:18:57;;;;;;;58.58;47.15;;;20.90;44.10;;;;;;4751615;55;21539;-21
2021/03/28 12:24:05;;;;;;;62.13;48.92;;;20.90;44.10;;;;;;4784605;55;20998;-26
2021/03/28 12:29:40;;;;;;;60.38;48.15;;;20.90;44.10;;;;;;4746681;55;21532;-28
2021/03/28 12:34:46;;;;;;;61.40;48.53;;;21.00;44.40;;;;;;4755349;55;20987;-22
2021/03/28 12:40:29;;;;;;;61.70;49.30;;;21.00;44.10;;;;;;4750934;55;21144;-17
2021/03/28 12:45:36;;;;;;;64.40;49.55;;;21.00;44.10;;;;;;4760004;55;21089;-24
2021/03/28 12:50:45;;;;;;;65.33;49.70;;;21.00;44.10;;;;;;4737562;59;21612;-24
2021/03/28 12:55:54;;;;;;;61.80;49.97;;;21.00;44.10;;;;;;4771299;55;21009;-26
2021/03/28 13:01:20;;;;;;;64.65;50.60;;;21.00;44.10;;;;;;4803592;55;21079;-21
2021/03/28 13:06:41;;;;;;;65.37;51.85;;;21.00;44.10;;;;;;4738790;59;21046;-26
2021/03/28 13:12:13;;;;;;;61.42;50.20;;;21.00;44.10;;;;;;4759586;55;21496;-21
2021/03/28 13:17:35;;;;;;;63.63;49.22;;;21.00;44.10;;;;;;4741905;55;21508;-28
2021/03/28 13:22:47;;;;;;;62.97;50.35;;;21.00;44.00;;;;;;4738000;59;21504;-27
2021/03/28 13:29:49;;;;;;;62.60;51.10;;;21.00;44.00;;;;;;4760273;55;21496;-25
2021/03/28 13:35:02;;;;;;;60.88;49.55;;;21.00;43.90;;;;;;4782699;55;21014;-25
2021/03/28 13:41:15;;;;;;;64.72;50.53;;;21.00;43.90;;;;;;4829875;55;21559;-24
2021/03/28 13:46:20;;;;;;;66.53;51.83;;;21.00;43.90;;;;;;4768813;55;21054;-26
2021/03/28 13:51:25;;;;;;;65.85;51.75;;;21.00;43.80;;;;;;4791764;55;21074;-22
2021/03/28 13:56:52;;;;;;;62.97;51.03;;;21.00;43.80;;;;;;4776042;55;21107;-24
2021/03/28 14:08:41;;;;;;;64.55;51.05;;;21.00;43.80;;;;;;4766155;55;21489;-23
2021/03/28 14:13:44;;;;;;;63.70;51.15;;;21.00;43.70;;;;;;4750488;55;21537;-25
2021/03/28 14:18:55;;;;;;;62.75;48.38;;;21.00;43.70;;;;;;4737638;55;21508;-25
2021/03/28 14:29:16;;;;;;;59.45;48.72;;;21.00;43.70;;;;;;4829364;55;21500;-26
2021/03/28 14:34:36;;;;;;;62.20;50.12;;;21.00;43.70;;;;;;4783166;55;21002;-26
2021/03/28 14:41:40;;;;;;;60.38;49.47;;;21.00;43.60;;;;;;4741958;55;21021;-26
2021/03/28 14:48:19;;;;;;;59.08;47.22;;;21.00;43.70;;;;;;4737893;59;21528;-25
2021/03/28 14:54:22;;;;;;;60.70;49.63;;;21.00;43.60;;;;;;4737788;59;21073;-26
2021/03/28 14:59:54;;;;;;;58.95;47.88;;;21.00;43.60;;;;;;4752495;55;21006;-25
2021/03/28 15:06:42;;;;;;;59.97;49.53;;;21.00;43.50;;;;;;4738036;59;21074;-26
2021/03/28 15:12:19;;;;;;;58.67;48.83;;;21.00;43.50;;;;;;4817734;55;20998;-25
2021/03/28 15:18:02;;;;;;;59.03;48.40;;;21.00;43.50;;;;;;4752068;55;21061;-22
2021/03/28 15:23:24;;;;;;;60.50;48.85;;;21.00;43.50;;;;;;4767862;55;21493;-25
2021/03/28 15:28:29;;;;;;;56.28;46.60;;;21.00;43.40;;;;;;4770222;55;21171;-26
2021/03/28 15:34:03;;;;;;;60.47;47.20;;;21.00;43.40;;;;;;4789437;55;20998;-18
2021/03/28 15:41:10;;;;;;;56.37;46.33;;;21.00;43.50;;;;;;4792768;55;21065;-21
2021/03/28 15:46:20;;;;;;;56.80;46.28;;;21.00;43.40;;;;;;4750192;55;21053;-23
2021/03/28 15:56:05;;;;;;;53.50;45.72;;;21.00;43.30;;;;;;4743402;55;21507;-26
2021/03/28 16:08:09;;;;;;;54.57;44.80;;;21.00;43.30;;;;;;4749306;55;21477;-21
2021/03/28 16:17:11;;;;;;;54.75;44.00;;;21.00;43.30;;;;;;4753204;55;21045;-22
2021/03/28 16:22:53;;;;;;;52.85;43.05;;;21.00;43.30;;;;;;4737021;59;21985;-23
2021/03/28 16:28:37;;;;;;;52.72;42.78;;;20.90;43.20;;;;;;4750415;55;21054;-21
2021/03/28 16:34:07;;;;;;;53.58;44.33;;;21.00;43.30;;;;;;4790300;55;21050;-27
2021/03/28 16:39:24;;;;;;;53.22;42.70;;;21.00;43.20;;;;;;4792717;55;21118;-24
2021/03/28 16:46:01;;;;;;;54.53;44.33;;;20.90;43.20;;;;;;4776904;55;21594;-24
2021/03/28 16:51:49;;;;;;;51.65;43.08;;;20.90;43.10;;;;;;4736684;59;21086;-23
2021/03/28 16:58:46;;;;;;;52.60;42.38;;;20.90;43.10;;;;;;4737932;59;21512;-20
2021/03/28 17:04:03;;;;;;;49.15;40.40;;;21.00;43.10;;;;;;4750665;55;21026;-24
2021/03/28 17:09:19;;;;;;;48.92;40.92;;;20.90;43.10;;;;;;4802548;55;21568;-25
2021/03/28 17:17:11;;;;;;;51.85;41.60;;;21.00;43.20;;;;;;4795197;55;21547;-20
2021/03/28 17:22:51;;;;;;;48.58;40.67;;;20.90;43.10;;;;;;4763900;55;21037;-23
2021/03/28 17:32:58;;;;;;;49.88;41.53;;;21.00;43.20;;;;;;4781216;55;21014;-24
2021/03/28 17:38:04;;;;;;;47.22;40.33;;;20.90;43.10;;;;;;4767641;55;21046;-25
2021/03/28 17:43:05;;;;;;;48.95;40.58;;;21.00;43.10;;;;;;4765408;55;21332;-26
2021/03/28 17:56:27;;;;;;;46.42;39.50;;;20.90;43.10;;;;;;4737333;59;21034;-21
2021/03/28 18:01:43;;;;;;;48.63;40.17;;;20.90;43.10;;;;;;4753828;55;21077;-22
2021/03/28 18:06:44;;;;;;;49.95;39.65;;;21.00;43.10;;;;;;4749034;55;20990;-24
2021/03/28 18:11:50;;;;;;;50.70;41.20;;;20.90;43.10;;;;;;4811605;55;21065;-25
2021/03/28 18:16:53;;;;;;;49.13;40.72;;;20.90;43.00;;;;;;4747481;55;21488;-25
2021/03/28 18:22:07;;;;;;;49.13;40.88;;;21.00;43.00;;;;;;4777599;55;21113;-25
2021/03/28 18:27:50;;;;;;;46.33;40.08;;;21.00;43.00;;;;;;4737752;59;21116;-25
2021/03/28 18:33:12;;;;;;;47.05;38.17;;;21.00;43.00;;;;;;4792143;55;21014;-23
2021/03/28 18:38:36;;;;;;;49.38;40.25;;;20.90;43.00;;;;;;4756007;55;21042;-20
2021/03/28 18:43:38;;;;;;;45.40;37.70;;;21.00;43.00;;;;;;4763028;55;21003;-23
2021/03/28 18:48:41;;;;;;;48.97;40.08;;;20.90;42.90;;;;;;4760026;55;21094;-27
2021/03/28 18:54:16;;;;;;;46.05;39.08;;;20.90;42.90;;;;;;4790968;55;21081;-23
2021/03/28 18:59:22;;;;;;;46.33;39.03;;;20.90;43.00;;;;;;4769480;55;20995;-21
2021/03/28 19:04:27;;;;;;;47.45;40.22;;;20.90;42.90;;;;;;4737408;59;21038;-21
2021/03/28 19:10:00;;;;;;;48.63;40.05;;;20.90;42.90;;;;;;4809819;55;21634;-22
2021/03/28 19:21:54;;;;;;;48.50;39.22;;;20.90;42.80;;;;;;4781275;55;20982;-21
2021/03/28 19:27:17;;;;;;;47.83;39.40;;;21.00;42.80;;;;;;4748038;55;21006;-25
2021/03/28 19:32:31;;;;;;;46.13;38.88;;;20.90;42.70;;;;;;4738754;59;21006;-23
2021/03/28 19:37:34;;;;;;;48.10;40.78;;;21.00;42.80;;;;;;4745964;55;21055;-27
2021/03/28 19:42:35;;;;;;;47.97;40.30;;;20.90;42.70;;;;;;4738394;55;21065;-25
2021/03/28 19:47:38;;;;;;;49.33;39.95;;;20.90;42.70;;;;;;4800145;55;21544;-27
2021/03/28 19:52:43;;;;;;;50.50;41.37;;;20.90;42.70;;;;;;4786197;55;21014;-21
2021/03/28 19:57:46;;;;;;;47.80;39.65;;;20.90;42.60;;;;;;4766368;55;21081;-25
2021/03/28 20:02:57;;;;;;;47.28;38.90;;;20.90;42.70;;;;;;4828926;55;21103;-23
2021/03/28 20:08:33;;;;;;;49.35;40.45;;;20.90;42.60;;;;;;4774556;55;21516;-17
2021/03/28 20:13:36;;;;;;;50.05;40.78;;;20.90;42.60;;;;;;4853682;55;21528;-25
2021/03/28 20:18:42;;;;;;;49.17;39.03;;;20.90;42.60;;;;;;4752086;55;21026;-27
2021/03/28 20:23:43;;;;;;;46.65;39.13;;;20.90;42.50;;;;;;4772807;55;21472;-23
2021/03/28 20:35:32;;;;;;;48.47;40.08;;;20.90;42.50;;;;;;4737414;59;21078;-20
2021/03/28 20:40:35;;;;;;;49.53;40.30;;;20.90;42.60;;;;;;4778651;55;21002;-25
2021/03/28 20:45:36;;;;;;;46.80;38.72;;;20.90;42.50;;;;;;4744224;55;21488;-17
2021/03/28 20:50:38;;;;;;;52.20;42.67;;;20.90;42.50;;;;;;4741058;55;21057;-26
2021/03/28 20:55:39;;;;;;;47.70;39.63;;;20.90;42.50;;;;;;4752299;55;20998;-25
2021/03/28 21:00:42;;;;;;;52.78;41.42;;;20.90;42.50;;;;;;4737860;55;21045;-30
2021/03/28 21:05:44;;;;;;;47.92;39.15;;;20.90;42.40;;;;;;4754416;55;21567;-26
2021/03/28 21:10:49;;;;;;;49.00;40.58;;;20.90;42.40;;;;;;4743959;55;21008;-26
2021/03/28 21:15:52;;;;;;;49.33;40.63;;;20.90;42.40;;;;;;4762456;55;21066;-30
2021/03/28 21:20:53;;;;;;;52.13;42.65;;;20.90;42.40;;;;;;4759375;55;21627;-27
2021/03/28 21:25:56;;;;;;;52.13;41.40;;;20.90;42.40;;;;;;4763139;55;21014;-23
2021/03/28 21:31:02;;;;;;;50.58;40.75;;;20.90;42.40;;;;;;4738445;55;21050;-22
2021/03/28 21:36:05;;;;;;;53.00;41.97;;;20.90;42.40;;;;;;4791512;55;21057;-25
2021/03/28 21:41:07;;;;;;;55.70;41.15;;;20.90;42.40;;;;;;4738238;56;21579;-24
2021/03/28 21:46:09;;;;;;;54.35;42.83;;;20.90;42.40;;;;;;4796866;55;21006;-25
2021/03/28 21:51:10;;;;;;;53.28;41.88;;;20.90;42.30;;;;;;4768036;55;21053;-26
2021/03/28 21:56:13;;;;;;;50.65;42.42;;;20.90;42.30;;;;;;4788154;55;21528;-21
2021/03/28 22:01:14;;;;;;;53.05;41.22;;;20.90;42.30;;;;;;4766943;55;21067;-25
2021/03/28 22:06:21;;;;;;;52.35;41.28;;;20.90;42.30;;;;;;4737523;59;21089;-25
2021/03/28 22:11:31;;;;;;;54.10;42.80;;;20.90;42.30;;;;;;4742395;55;21468;-28
2021/03/28 22:16:38;;;;;;;55.92;44.47;;;20.90;42.20;;;;;;4759053;55;21006;-19
2021/03/28 22:21:39;;;;;;;52.37;42.50;;;20.90;42.20;;;;;;4740758;55;21520;-26
2021/03/28 22:26:42;;;;;;;54.50;41.30;;;20.90;42.20;;;;;;4865419;55;21061;-24
2021/03/28 22:31:53;;;;;;;54.65;43.40;;;20.90;42.20;;;;;;4745351;55;21030;-24
2021/03/28 22:36:54;;;;;;;53.95;42.47;;;20.90;42.20;;;;;;4740569;55;21124;-24
2021/03/28 22:41:56;;;;;;;57.65;44.40;;;20.90;42.10;;;;;;4764344;55;21022;-27
2021/03/28 22:47:06;;;;;;;56.70;43.87;;;20.90;42.10;;;;;;4739258;55;21110;-30
2021/03/28 22:52:09;;;;;;;55.63;43.53;;;20.90;42.10;;;;;;4797565;55;21014;-23
2021/03/28 22:57:11;;;;;;;52.60;42.92;;;20.90;42.10;;;;;;4826938;55;21069;-27
2021/03/28 23:02:14;;;;;;;55.00;42.25;;;20.90;42.10;;;;;;4760407;55;21078;-26
2021/03/28 23:07:21;;;;;;;55.25;41.97;;;20.90;42.10;;;;;;4743156;55;21081;-24
2021/03/28 23:12:24;;;;;;;55.28;43.42;;;20.90;42.10;;;;;;4759658;55;21065;-23
2021/03/28 23:17:27;;;;;;;56.03;43.95;;;20.90;42.00;;;;;;4812537;55;22328;-25
2021/03/28 23:22:32;;;;;;;53.90;42.17;;;20.90;42.00;;;;;;4828796;55;21022;-24
2021/03/28 23:27:33;;;;;;;56.47;43.05;;;20.90;42.00;;;;;;4751820;55;20997;-23
2021/03/28 23:32:37;;;;;;;54.35;42.88;;;20.90;42.00;;;;;;4768988;55;21014;-25
2021/03/28 23:37:38;;;;;;;54.75;42.95;;;20.90;42.00;;;;;;4738086;59;21125;-24
2021/03/28 23:42:39;;;;;;;55.17;43.22;;;20.90;41.90;;;;;;4742752;55;21006;-24
2021/03/28 23:47:44;;;;;;;56.72;44.20;;;20.90;41.90;;;;;;4742645;55;21037;-25
2021/03/28 23:52:52;;;;;;;53.80;41.80;;;20.90;41.90;;;;;;4741686;55;21544;-22
2021/03/28 23:57:56;;;;;;;57.72;43.33;;;20.90;41.80;;;;;;4748388;55;21105;-19
